sensor_id;sensor_type;location;lat;lon;timestamp;temperature;humidity
23347;DHT22;36852;45.466;11.066;2022-11-09T00:01:03;14.70;99.90
23347;DHT22;36852;45.466;11.066;2022-11-09T00:03:31;14.70;99.90
23347;DHT22;36852;45.466;11.066;2022-11-09T00:06:01;14.70;99.90
23347;DHT22;36852;45.466;11.066;2022-11-09T00:08:29;14.70;99.90
23347;DHT22;36852;45.466;11.066;2022-11-09T00:11:05;14.70;99.90
23347;DHT22;36852;45.466;11.066;2022-11-09T00:13:37;14.70;99.90
23347;DHT22;36852;45.466;11.066;2022-11-09T00:16:07;14.70;99.90
23347;DHT22;36852;45.466;11.066;2022-11-09T00:18:36;14.70;99.90
23347;DHT22;36852;45.466;11.066;2022-11-09T00:21:07;14.70;99.90
23347;DHT22;36852;45.466;11.066;2022-11-09T00:23:35;14.70;99.90
23347;DHT22;36852;45.466;11.066;2022-11-09T00:26:04;14.70;99.90
23347;DHT22;36852;45.466;11.066;2022-11-09T00:28:32;14.70;99.90
23347;DHT22;36852;45.466;11.066;2022-11-09T00:31:02;14.70;99.90
23347;DHT22;36852;45.466;11.066;2022-11-09T00:33:31;14.70;99.90
23347;DHT22;36852;45.466;11.066;2022-11-09T00:36:04;14.70;99.90
23347;DHT22;36852;45.466;11.066;2022-11-09T00:38:33;14.70;99.90
23347;DHT22;36852;45.466;11.066;2022-11-09T00:41:04;14.60;99.90
23347;DHT22;36852;45.466;11.066;2022-11-09T00:43:32;14.60;99.90
23347;DHT22;36852;45.466;11.066;2022-11-09T00:46:01;14.60;99.90
23347;DHT22;36852;45.466;11.066;2022-11-09T00:48:32;14.60;99.90
23347;DHT22;36852;45.466;11.066;2022-11-09T00:54:14;14.60;99.90
23347;DHT22;36852;45.466;11.066;2022-11-09T00:56:43;14.60;99.90
23347;DHT22;36852;45.466;11.066;2022-11-09T00:59:11;14.50;99.90
23347;DHT22;36852;45.466;11.066;2022-11-09T01:01:38;14.50;99.90
23347;DHT22;36852;45.466;11.066;2022-11-09T01:04:16;14.50;99.90
23347;DHT22;36852;45.466;11.066;2022-11-09T01:06:58;14.50;99.90
23347;DHT22;36852;45.466;11.066;2022-11-09T01:09:28;14.50;99.90
23347;DHT22;36852;45.466;11.066;2022-11-09T01:11:56;14.50;99.90
23347;DHT22;36852;45.466;11.066;2022-11-09T01:14:24;14.50;99.90
23347;DHT22;36852;45.466;11.066;2022-11-09T01:16:51;14.50;99.90
23347;DHT22;36852;45.466;11.066;2022-11-09T01:19:19;14.50;99.90
23347;DHT22;36852;45.466;11.066;2022-11-09T01:21:46;14.50;99.90
23347;DHT22;36852;45.466;11.066;2022-11-09T01:24:14;14.40;99.90
23347;DHT22;36852;45.466;11.066;2022-11-09T01:26:51;14.40;99.90
23347;DHT22;36852;45.466;11.066;2022-11-09T01:29:16;14.40;99.90
23347;DHT22;36852;45.466;11.066;2022-11-09T01:31:55;14.50;99.90
23347;DHT22;36852;45.466;11.066;2022-11-09T01:34:36;14.40;99.90
23347;DHT22;36852;45.466;11.066;2022-11-09T01:37:01;14.40;99.90
23347;DHT22;36852;45.466;11.066;2022-11-09T01:39:29;14.40;99.90
23347;DHT22;36852;45.466;11.066;2022-11-09T01:41:57;14.40;99.90
23347;DHT22;36852;45.466;11.066;2022-11-09T01:44:25;14.40;99.90
23347;DHT22;36852;45.466;11.066;2022-11-09T01:46:59;14.40;99.90
23347;DHT22;36852;45.466;11.066;2022-11-09T01:49:37;14.40;99.90
23347;DHT22;36852;45.466;11.066;2022-11-09T01:52:19;14.40;99.90
23347;DHT22;36852;45.466;11.066;2022-11-09T01:54:51;14.40;99.90
23347;DHT22;36852;45.466;11.066;2022-11-09T01:57:23;14.40;99.90
23347;DHT22;36852;45.466;11.066;2022-11-09T01:59:57;14.40;99.90
23347;DHT22;36852;45.466;11.066;2022-11-09T02:02:25;14.40;99.90
23347;DHT22;36852;45.466;11.066;2022-11-09T02:05:04;14.40;99.90
23347;DHT22;36852;45.466;11.066;2022-11-09T02:07:28;14.40;99.90
23347;DHT22;36852;45.466;11.066;2022-11-09T02:09:59;14.40;99.90
23347;DHT22;36852;45.466;11.066;2022-11-09T02:12:33;14.40;99.90
23347;DHT22;36852;45.466;11.066;2022-11-09T02:15:04;14.40;99.90
23347;DHT22;36852;45.466;11.066;2022-11-09T02:17:35;14.30;99.90
23347;DHT22;36852;45.466;11.066;2022-11-09T02:20:12;14.30;99.90
23347;DHT22;36852;45.466;11.066;2022-11-09T02:22:36;14.20;99.90
23347;DHT22;36852;45.466;11.066;2022-11-09T02:25:04;14.20;99.90
23347;DHT22;36852;45.466;11.066;2022-11-09T02:27:35;14.20;99.90
23347;DHT22;36852;45.466;11.066;2022-11-09T02:30:04;14.20;99.90
23347;DHT22;36852;45.466;11.066;2022-11-09T02:32:32;14.20;99.90
23347;DHT22;36852;45.466;11.066;2022-11-09T02:35:01;14.20;99.90
23347;DHT22;36852;45.466;11.066;2022-11-09T02:37:34;14.20;99.90
23347;DHT22;36852;45.466;11.066;2022-11-09T02:40:16;14.30;99.90
23347;DHT22;36852;45.466;11.066;2022-11-09T02:42:40;14.30;99.90
23347;DHT22;36852;45.466;11.066;2022-11-09T02:45:09;14.30;99.90
23347;DHT22;36852;45.466;11.066;2022-11-09T02:47:37;14.30;99.90
23347;DHT22;36852;45.466;11.066;2022-11-09T02:50:05;14.30;99.90
23347;DHT22;36852;45.466;11.066;2022-11-09T02:52:33;14.30;99.90
23347;DHT22;36852;45.466;11.066;2022-11-09T02:55:01;14.30;99.90
23347;DHT22;36852;45.466;11.066;2022-11-09T02:57:29;14.30;99.90
23347;DHT22;36852;45.466;11.066;2022-11-09T02:59:56;14.30;99.90
23347;DHT22;36852;45.466;11.066;2022-11-09T03:02:24;14.30;99.90
23347;DHT22;36852;45.466;11.066;2022-11-09T03:04:55;14.30;99.90
23347;DHT22;36852;45.466;11.066;2022-11-09T03:07:24;14.40;99.90
23347;DHT22;36852;45.466;11.066;2022-11-09T03:09:52;14.40;99.90
23347;DHT22;36852;45.466;11.066;2022-11-09T03:12:21;14.30;99.90
23347;DHT22;36852;45.466;11.066;2022-11-09T03:15:01;14.30;99.90
23347;DHT22;36852;45.466;11.066;2022-11-09T03:17:32;14.30;99.90
23347;DHT22;36852;45.466;11.066;2022-11-09T03:20:00;14.30;99.90
23347;DHT22;36852;45.466;11.066;2022-11-09T03:22:28;14.30;99.90
23347;DHT22;36852;45.466;11.066;2022-11-09T03:24:58;14.30;99.90
23347;DHT22;36852;45.466;11.066;2022-11-09T03:27:28;14.30;99.90
23347;DHT22;36852;45.466;11.066;2022-11-09T03:29:56;14.30;99.90
23347;DHT22;36852;45.466;11.066;2022-11-09T03:32:24;14.30;99.90
23347;DHT22;36852;45.466;11.066;2022-11-09T03:34:52;14.30;99.90
23347;DHT22;36852;45.466;11.066;2022-11-09T03:37:20;14.30;99.90
23347;DHT22;36852;45.466;11.066;2022-11-09T03:39:47;14.30;99.90
23347;DHT22;36852;45.466;11.066;2022-11-09T03:42:15;14.30;99.90
23347;DHT22;36852;45.466;11.066;2022-11-09T03:44:43;14.30;99.90
23347;DHT22;36852;45.466;11.066;2022-11-09T03:47:10;14.30;99.90
23347;DHT22;36852;45.466;11.066;2022-11-09T03:49:39;14.30;99.90
23347;DHT22;36852;45.466;11.066;2022-11-09T03:52:08;14.30;99.90
23347;DHT22;36852;45.466;11.066;2022-11-09T03:54:38;14.30;99.90
23347;DHT22;36852;45.466;11.066;2022-11-09T03:57:07;14.30;99.90
23347;DHT22;36852;45.466;11.066;2022-11-09T03:59:35;14.20;99.90
23347;DHT22;36852;45.466;11.066;2022-11-09T04:02:03;14.20;99.90
23347;DHT22;36852;45.466;11.066;2022-11-09T04:04:31;14.20;99.90
23347;DHT22;36852;45.466;11.066;2022-11-09T04:06:59;14.10;99.90
23347;DHT22;36852;45.466;11.066;2022-11-09T04:09:27;14.10;99.90
23347;DHT22;36852;45.466;11.066;2022-11-09T04:12:03;14.10;99.90
23347;DHT22;36852;45.466;11.066;2022-11-09T04:14:30;14.20;99.90
23347;DHT22;36852;45.466;11.066;2022-11-09T04:16:58;14.10;99.90
23347;DHT22;36852;45.466;11.066;2022-11-09T04:19:26;14.20;99.90
23347;DHT22;36852;45.466;11.066;2022-11-09T04:21:54;14.20;99.90
23347;DHT22;36852;45.466;11.066;2022-11-09T04:24:22;14.20;99.90
23347;DHT22;36852;45.466;11.066;2022-11-09T04:26:49;14.20;99.90
23347;DHT22;36852;45.466;11.066;2022-11-09T04:29:17;14.20;99.90
23347;DHT22;36852;45.466;11.066;2022-11-09T04:31:47;14.30;99.90
23347;DHT22;36852;45.466;11.066;2022-11-09T04:34:15;14.30;99.90
23347;DHT22;36852;45.466;11.066;2022-11-09T04:36:43;14.20;99.90
23347;DHT22;36852;45.466;11.066;2022-11-09T04:39:12;14.30;99.90
23347;DHT22;36852;45.466;11.066;2022-11-09T04:41:39;14.20;99.90
23347;DHT22;36852;45.466;11.066;2022-11-09T04:44:07;14.20;99.90
23347;DHT22;36852;45.466;11.066;2022-11-09T04:46:34;14.20;99.90
23347;DHT22;36852;45.466;11.066;2022-11-09T04:49:02;14.20;99.90
23347;DHT22;36852;45.466;11.066;2022-11-09T04:51:29;14.20;99.90
23347;DHT22;36852;45.466;11.066;2022-11-09T04:53:58;14.20;99.90
23347;DHT22;36852;45.466;11.066;2022-11-09T04:56:26;14.20;99.90
23347;DHT22;36852;45.466;11.066;2022-11-09T04:58:54;14.20;99.90
23347;DHT22;36852;45.466;11.066;2022-11-09T05:01:21;14.20;99.90
23347;DHT22;36852;45.466;11.066;2022-11-09T05:03:51;14.20;99.90
23347;DHT22;36852;45.466;11.066;2022-11-09T05:06:20;14.20;99.90
23347;DHT22;36852;45.466;11.066;2022-11-09T05:09:02;14.20;99.90
23347;DHT22;36852;45.466;11.066;2022-11-09T05:11:31;14.30;99.90
23347;DHT22;36852;45.466;11.066;2022-11-09T05:13:59;14.20;99.90
23347;DHT22;36852;45.466;11.066;2022-11-09T05:16:28;14.20;99.90
23347;DHT22;36852;45.466;11.066;2022-11-09T05:18:56;14.20;99.90
23347;DHT22;36852;45.466;11.066;2022-11-09T05:21:23;14.30;99.90
23347;DHT22;36852;45.466;11.066;2022-11-09T05:23:50;14.30;99.90
23347;DHT22;36852;45.466;11.066;2022-11-09T05:26:33;14.30;99.90
23347;DHT22;36852;45.466;11.066;2022-11-09T05:29:07;14.30;99.90
23347;DHT22;36852;45.466;11.066;2022-11-09T05:31:36;14.20;99.90
23347;DHT22;36852;45.466;11.066;2022-11-09T05:34:05;14.20;99.90
23347;DHT22;36852;45.466;11.066;2022-11-09T05:36:34;14.30;99.90
23347;DHT22;36852;45.466;11.066;2022-11-09T05:39:01;14.30;99.90
23347;DHT22;36852;45.466;11.066;2022-11-09T05:41:29;14.30;99.90
23347;DHT22;36852;45.466;11.066;2022-11-09T05:43:56;14.30;99.90
23347;DHT22;36852;45.466;11.066;2022-11-09T05:46:24;14.20;99.90
23347;DHT22;36852;45.466;11.066;2022-11-09T05:48:52;14.30;99.90
23347;DHT22;36852;45.466;11.066;2022-11-09T05:51:20;14.30;99.90
23347;DHT22;36852;45.466;11.066;2022-11-09T05:53:47;14.30;99.90
23347;DHT22;36852;45.466;11.066;2022-11-09T05:56:15;14.30;99.90
23347;DHT22;36852;45.466;11.066;2022-11-09T05:58:43;14.30;99.90
23347;DHT22;36852;45.466;11.066;2022-11-09T06:01:13;14.30;99.90
23347;DHT22;36852;45.466;11.066;2022-11-09T06:03:42;14.30;99.90
23347;DHT22;36852;45.466;11.066;2022-11-09T06:06:12;14.30;99.90
23347;DHT22;36852;45.466;11.066;2022-11-09T06:08:40;14.30;99.90
23347;DHT22;36852;45.466;11.066;2022-11-09T06:11:09;14.30;99.90
23347;DHT22;36852;45.466;11.066;2022-11-09T06:13:40;14.30;99.90
23347;DHT22;36852;45.466;11.066;2022-11-09T06:16:08;14.30;99.90
23347;DHT22;36852;45.466;11.066;2022-11-09T06:18:36;14.30;99.90
23347;DHT22;36852;45.466;11.066;2022-11-09T06:21:04;14.30;99.90
23347;DHT22;36852;45.466;11.066;2022-11-09T06:23:33;14.30;99.90
23347;DHT22;36852;45.466;11.066;2022-11-09T06:26:04;14.20;99.90
23347;DHT22;36852;45.466;11.066;2022-11-09T06:28:36;14.20;99.90
23347;DHT22;36852;45.466;11.066;2022-11-09T06:31:06;14.30;99.90
23347;DHT22;36852;45.466;11.066;2022-11-09T06:33:35;14.30;99.90
23347;DHT22;36852;45.466;11.066;2022-11-09T06:36:03;14.30;99.90
23347;DHT22;36852;45.466;11.066;2022-11-09T06:38:32;14.30;99.90
23347;DHT22;36852;45.466;11.066;2022-11-09T06:41:00;14.30;99.90
23347;DHT22;36852;45.466;11.066;2022-11-09T06:43:28;14.40;99.90
23347;DHT22;36852;45.466;11.066;2022-11-09T06:45:56;14.40;99.90
23347;DHT22;36852;45.466;11.066;2022-11-09T06:48:25;14.30;99.90
23347;DHT22;36852;45.466;11.066;2022-11-09T06:50:52;14.30;99.90
23347;DHT22;36852;45.466;11.066;2022-11-09T06:53:20;14.40;99.90
23347;DHT22;36852;45.466;11.066;2022-11-09T06:55:48;14.40;99.90
23347;DHT22;36852;45.466;11.066;2022-11-09T06:58:17;14.40;99.90
23347;DHT22;36852;45.466;11.066;2022-11-09T07:00:45;14.30;99.90
23347;DHT22;36852;45.466;11.066;2022-11-09T07:03:15;14.40;99.90
23347;DHT22;36852;45.466;11.066;2022-11-09T07:05:45;14.40;99.90
23347;DHT22;36852;45.466;11.066;2022-11-09T07:08:13;14.40;99.90
23347;DHT22;36852;45.466;11.066;2022-11-09T07:10:41;14.40;99.90
23347;DHT22;36852;45.466;11.066;2022-11-09T07:13:09;14.40;99.90
23347;DHT22;36852;45.466;11.066;2022-11-09T07:15:38;14.40;99.90
23347;DHT22;36852;45.466;11.066;2022-11-09T07:18:08;14.40;99.90
23347;DHT22;36852;45.466;11.066;2022-11-09T07:20:36;14.40;99.90
23347;DHT22;36852;45.466;11.066;2022-11-09T07:23:05;14.40;99.90
23347;DHT22;36852;45.466;11.066;2022-11-09T07:26:00;14.40;99.90
23347;DHT22;36852;45.466;11.066;2022-11-09T07:28:30;14.40;99.90
23347;DHT22;36852;45.466;11.066;2022-11-09T07:31:00;14.40;99.90
23347;DHT22;36852;45.466;11.066;2022-11-09T07:33:28;14.50;99.90
23347;DHT22;36852;45.466;11.066;2022-11-09T07:35:58;14.50;99.90
23347;DHT22;36852;45.466;11.066;2022-11-09T07:38:27;14.50;99.90
23347;DHT22;36852;45.466;11.066;2022-11-09T07:40:59;14.50;99.90
23347;DHT22;36852;45.466;11.066;2022-11-09T07:43:27;14.60;99.90
23347;DHT22;36852;45.466;11.066;2022-11-09T07:45:56;14.60;99.90
23347;DHT22;36852;45.466;11.066;2022-11-09T07:48:24;14.60;99.90
23347;DHT22;36852;45.466;11.066;2022-11-09T07:50:51;14.60;99.90
23347;DHT22;36852;45.466;11.066;2022-11-09T07:53:19;14.70;99.90
23347;DHT22;36852;45.466;11.066;2022-11-09T07:55:56;14.70;99.90
23347;DHT22;36852;45.466;11.066;2022-11-09T07:58:29;14.80;99.90
23347;DHT22;36852;45.466;11.066;2022-11-09T08:00:57;14.80;99.90
23347;DHT22;36852;45.466;11.066;2022-11-09T08:03:25;14.70;99.90
23347;DHT22;36852;45.466;11.066;2022-11-09T08:05:55;14.70;99.90
23347;DHT22;36852;45.466;11.066;2022-11-09T08:08:26;14.70;99.90
23347;DHT22;36852;45.466;11.066;2022-11-09T08:10:55;14.80;99.90
23347;DHT22;36852;45.466;11.066;2022-11-09T08:13:23;14.80;99.90
23347;DHT22;36852;45.466;11.066;2022-11-09T08:15:51;14.70;99.90
23347;DHT22;36852;45.466;11.066;2022-11-09T08:18:19;14.70;99.90
23347;DHT22;36852;45.466;11.066;2022-11-09T08:20:48;14.80;99.90
23347;DHT22;36852;45.466;11.066;2022-11-09T08:23:17;14.70;99.90
23347;DHT22;36852;45.466;11.066;2022-11-09T08:25:49;14.70;99.90
23347;DHT22;36852;45.466;11.066;2022-11-09T08:28:18;14.80;99.90
23347;DHT22;36852;45.466;11.066;2022-11-09T08:30:55;14.80;99.90
23347;DHT22;36852;45.466;11.066;2022-11-09T08:33:22;14.70;99.90
23347;DHT22;36852;45.466;11.066;2022-11-09T08:35:50;14.70;99.90
23347;DHT22;36852;45.466;11.066;2022-11-09T08:38:20;14.70;99.90
23347;DHT22;36852;45.466;11.066;2022-11-09T08:40:48;14.70;99.90
23347;DHT22;36852;45.466;11.066;2022-11-09T08:43:16;14.70;99.90
23347;DHT22;36852;45.466;11.066;2022-11-09T08:45:43;14.60;99.90
23347;DHT22;36852;45.466;11.066;2022-11-09T08:48:11;14.60;99.90
23347;DHT22;36852;45.466;11.066;2022-11-09T08:50:39;14.60;99.90
23347;DHT22;36852;45.466;11.066;2022-11-09T08:53:07;14.60;99.90
23347;DHT22;36852;45.466;11.066;2022-11-09T08:55:35;14.60;99.90
23347;DHT22;36852;45.466;11.066;2022-11-09T08:58:03;14.60;99.90
23347;DHT22;36852;45.466;11.066;2022-11-09T09:00:30;14.60;99.90
23347;DHT22;36852;45.466;11.066;2022-11-09T09:03:05;14.60;99.90
23347;DHT22;36852;45.466;11.066;2022-11-09T09:05:34;14.60;99.90
23347;DHT22;36852;45.466;11.066;2022-11-09T09:08:04;14.70;99.90
23347;DHT22;36852;45.466;11.066;2022-11-09T09:10:32;14.70;99.90
23347;DHT22;36852;45.466;11.066;2022-11-09T09:13:03;14.70;99.90
23347;DHT22;36852;45.466;11.066;2022-11-09T09:15:31;14.70;99.90
23347;DHT22;36852;45.466;11.066;2022-11-09T09:18:00;14.80;99.90
23347;DHT22;36852;45.466;11.066;2022-11-09T09:20:28;14.80;99.90
23347;DHT22;36852;45.466;11.066;2022-11-09T09:22:57;14.90;99.90
23347;DHT22;36852;45.466;11.066;2022-11-09T09:25:26;14.90;99.90
23347;DHT22;36852;45.466;11.066;2022-11-09T09:27:54;15.00;99.90
23347;DHT22;36852;45.466;11.066;2022-11-09T09:30:24;15.00;99.90
23347;DHT22;36852;45.466;11.066;2022-11-09T09:32:56;15.10;99.90
23347;DHT22;36852;45.466;11.066;2022-11-09T09:35:23;15.10;99.90
23347;DHT22;36852;45.466;11.066;2022-11-09T09:37:51;15.10;99.90
23347;DHT22;36852;45.466;11.066;2022-11-09T09:40:23;15.10;99.90
23347;DHT22;36852;45.466;11.066;2022-11-09T09:42:52;15.10;99.90
23347;DHT22;36852;45.466;11.066;2022-11-09T09:45:27;15.20;99.90
23347;DHT22;36852;45.466;11.066;2022-11-09T09:50:55;15.20;99.90
23347;DHT22;36852;45.466;11.066;2022-11-09T09:53:36;15.20;99.90
23347;DHT22;36852;45.466;11.066;2022-11-09T09:56:32;15.20;99.90
23347;DHT22;36852;45.466;11.066;2022-11-09T10:01:36;15.20;99.90
23347;DHT22;36852;45.466;11.066;2022-11-09T10:04:21;15.20;99.90
23347;DHT22;36852;45.466;11.066;2022-11-09T10:07:09;15.20;99.90
23347;DHT22;36852;45.466;11.066;2022-11-09T10:12:26;15.30;99.90
23347;DHT22;36852;45.466;11.066;2022-11-09T10:15:13;15.20;99.90
23347;DHT22;36852;45.466;11.066;2022-11-09T10:26:16;15.20;99.90
23347;DHT22;36852;45.466;11.066;2022-11-09T10:28:47;15.10;99.90
23347;DHT22;36852;45.466;11.066;2022-11-09T10:31:19;15.10;99.90
23347;DHT22;36852;45.466;11.066;2022-11-09T10:33:55;15.10;99.90
23347;DHT22;36852;45.466;11.066;2022-11-09T10:36:42;15.10;99.90
23347;DHT22;36852;45.466;11.066;2022-11-09T10:39:01;15.10;99.90
23347;DHT22;36852;45.466;11.066;2022-11-09T10:41:56;15.10;99.90
23347;DHT22;36852;45.466;11.066;2022-11-09T10:44:42;15.20;99.90
23347;DHT22;36852;45.466;11.066;2022-11-09T10:47:28;15.20;99.90
23347;DHT22;36852;45.466;11.066;2022-11-09T10:56:14;15.30;99.90
23347;DHT22;36852;45.466;11.066;2022-11-09T10:59:02;15.30;99.90
23347;DHT22;36852;45.466;11.066;2022-11-09T11:01:48;15.40;99.90
23347;DHT22;36852;45.466;11.066;2022-11-09T11:04:34;15.40;99.90
23347;DHT22;36852;45.466;11.066;2022-11-09T11:07:21;15.50;99.90
23347;DHT22;36852;45.466;11.066;2022-11-09T11:10:18;15.50;99.90
23347;DHT22;36852;45.466;11.066;2022-11-09T11:15:55;15.60;99.90
23347;DHT22;36852;45.466;11.066;2022-11-09T11:18:45;15.70;99.90
23347;DHT22;36852;45.466;11.066;2022-11-09T11:21:31;15.70;99.90
23347;DHT22;36852;45.466;11.066;2022-11-09T11:24:19;15.70;99.90
23347;DHT22;36852;45.466;11.066;2022-11-09T11:27:13;15.70;99.90
23347;DHT22;36852;45.466;11.066;2022-11-09T11:30:25;15.70;99.90
23347;DHT22;36852;45.466;11.066;2022-11-09T11:32:58;15.70;99.90
23347;DHT22;36852;45.466;11.066;2022-11-09T11:39:37;15.70;99.90
23347;DHT22;36852;45.466;11.066;2022-11-09T12:04:14;15.80;99.90
23347;DHT22;36852;45.466;11.066;2022-11-09T12:07:08;15.80;99.90
23347;DHT22;36852;45.466;11.066;2022-11-09T12:10:16;15.70;99.90
23347;DHT22;36852;45.466;11.066;2022-11-09T12:16:37;15.70;99.90
23347;DHT22;36852;45.466;11.066;2022-11-09T12:31:26;15.50;99.90
23347;DHT22;36852;45.466;11.066;2022-11-09T12:37:13;15.40;99.90
23347;DHT22;36852;45.466;11.066;2022-11-09T12:43:04;15.40;99.90
23347;DHT22;36852;45.466;11.066;2022-11-09T12:45:52;15.40;99.90
23347;DHT22;36852;45.466;11.066;2022-11-09T12:48:39;15.40;99.90
23347;DHT22;36852;45.466;11.066;2022-11-09T12:51:26;15.40;99.90
23347;DHT22;36852;45.466;11.066;2022-11-09T12:54:13;15.40;99.90
23347;DHT22;36852;45.466;11.066;2022-11-09T12:57:05;15.30;99.90
23347;DHT22;36852;45.466;11.066;2022-11-09T12:59:55;15.30;99.90
23347;DHT22;36852;45.466;11.066;2022-11-09T13:02:57;15.30;99.90
23347;DHT22;36852;45.466;11.066;2022-11-09T13:05:44;15.30;99.90
23347;DHT22;36852;45.466;11.066;2022-11-09T13:08:32;15.30;99.90
23347;DHT22;36852;45.466;11.066;2022-11-09T13:14:25;15.30;99.90
23347;DHT22;36852;45.466;11.066;2022-11-09T13:23:37;15.30;99.90
23347;DHT22;36852;45.466;11.066;2022-11-09T13:29:22;15.30;99.90
23347;DHT22;36852;45.466;11.066;2022-11-09T13:35:53;15.30;99.90
23347;DHT22;36852;45.466;11.066;2022-11-09T13:37:59;15.20;99.90
23347;DHT22;36852;45.466;11.066;2022-11-09T13:41:38;15.20;99.90
23347;DHT22;36852;45.466;11.066;2022-11-09T13:46:52;15.30;99.90
23347;DHT22;36852;45.466;11.066;2022-11-09T13:49:41;15.40;99.90
23347;DHT22;36852;45.466;11.066;2022-11-09T13:52:45;15.30;99.90
23347;DHT22;36852;45.466;11.066;2022-11-09T13:55:40;15.40;99.90
23347;DHT22;36852;45.466;11.066;2022-11-09T13:58:32;15.40;99.90
23347;DHT22;36852;45.466;11.066;2022-11-09T14:01:31;15.40;99.90
23347;DHT22;36852;45.466;11.066;2022-11-09T14:04:36;15.30;99.90
23347;DHT22;36852;45.466;11.066;2022-11-09T14:07:25;15.30;99.90
23347;DHT22;36852;45.466;11.066;2022-11-09T14:22:43;15.40;99.90
23347;DHT22;36852;45.466;11.066;2022-11-09T14:25:34;15.40;99.90
23347;DHT22;36852;45.466;11.066;2022-11-09T14:28:22;15.40;99.90
23347;DHT22;36852;45.466;11.066;2022-11-09T14:31:29;15.40;99.90
23347;DHT22;36852;45.466;11.066;2022-11-09T14:34:19;15.40;99.90
23347;DHT22;36852;45.466;11.066;2022-11-09T14:37:05;15.40;99.90
23347;DHT22;36852;45.466;11.066;2022-11-09T14:39:54;15.30;99.90
23347;DHT22;36852;45.466;11.066;2022-11-09T14:42:51;15.30;99.90
23347;DHT22;36852;45.466;11.066;2022-11-09T14:45:38;15.30;99.90
23347;DHT22;36852;45.466;11.066;2022-11-09T14:48:25;15.30;99.90
23347;DHT22;36852;45.466;11.066;2022-11-09T14:51:12;15.30;99.90
23347;DHT22;36852;45.466;11.066;2022-11-09T14:54:08;15.30;99.90
23347;DHT22;36852;45.466;11.066;2022-11-09T14:56:54;15.30;99.90
23347;DHT22;36852;45.466;11.066;2022-11-09T14:59:42;15.30;99.90
23347;DHT22;36852;45.466;11.066;2022-11-09T15:02:28;15.30;99.90
23347;DHT22;36852;45.466;11.066;2022-11-09T15:05:34;15.20;99.90
23347;DHT22;36852;45.466;11.066;2022-11-09T15:08:18;15.20;99.90
23347;DHT22;36852;45.466;11.066;2022-11-09T15:11:07;15.20;99.90
23347;DHT22;36852;45.466;11.066;2022-11-09T15:13:53;15.20;99.90
23347;DHT22;36852;45.466;11.066;2022-11-09T15:16:40;15.30;99.90
23347;DHT22;36852;45.466;11.066;2022-11-09T15:19:33;15.30;99.90
23347;DHT22;36852;45.466;11.066;2022-11-09T15:28:31;15.30;99.90
23347;DHT22;36852;45.466;11.066;2022-11-09T15:31:19;15.30;99.90
23347;DHT22;36852;45.466;11.066;2022-11-09T15:34:22;15.30;99.90
23347;DHT22;36852;45.466;11.066;2022-11-09T15:37:20;15.30;99.90
23347;DHT22;36852;45.466;11.066;2022-11-09T15:40:12;15.30;99.90
23347;DHT22;36852;45.466;11.066;2022-11-09T15:42:58;15.20;99.90
23347;DHT22;36852;45.466;11.066;2022-11-09T15:45:44;15.30;99.90
23347;DHT22;36852;45.466;11.066;2022-11-09T15:48:30;15.30;99.90
23347;DHT22;36852;45.466;11.066;2022-11-09T15:51:17;15.30;99.90
23347;DHT22;36852;45.466;11.066;2022-11-09T15:54:03;15.30;99.90
23347;DHT22;36852;45.466;11.066;2022-11-09T15:56:49;15.20;99.90
23347;DHT22;36852;45.466;11.066;2022-11-09T15:59:35;15.20;99.90
23347;DHT22;36852;45.466;11.066;2022-11-09T16:02:21;15.20;99.90
23347;DHT22;36852;45.466;11.066;2022-11-09T16:05:07;15.20;99.90
23347;DHT22;36852;45.466;11.066;2022-11-09T16:07:56;15.20;99.90
23347;DHT22;36852;45.466;11.066;2022-11-09T16:10:43;15.20;99.90
23347;DHT22;36852;45.466;11.066;2022-11-09T16:13:29;15.10;99.90
23347;DHT22;36852;45.466;11.066;2022-11-09T16:16:18;15.10;99.90
23347;DHT22;36852;45.466;11.066;2022-11-09T16:19:04;15.10;99.90
23347;DHT22;36852;45.466;11.066;2022-11-09T16:21:53;15.10;99.90
23347;DHT22;36852;45.466;11.066;2022-11-09T16:24:39;15.10;99.90
23347;DHT22;36852;45.466;11.066;2022-11-09T16:27:25;15.10;99.90
23347;DHT22;36852;45.466;11.066;2022-11-09T16:30:15;15.10;99.90
23347;DHT22;36852;45.466;11.066;2022-11-09T16:33:01;15.10;99.90
23347;DHT22;36852;45.466;11.066;2022-11-09T16:35:48;15.10;99.90
23347;DHT22;36852;45.466;11.066;2022-11-09T16:38:41;15.10;99.90
23347;DHT22;36852;45.466;11.066;2022-11-09T16:41:29;15.00;99.90
23347;DHT22;36852;45.466;11.066;2022-11-09T16:44:18;15.00;99.90
23347;DHT22;36852;45.466;11.066;2022-11-09T17:00:36;14.80;99.90
23347;DHT22;36852;45.466;11.066;2022-11-09T17:03:25;15.30;99.90
23347;DHT22;36852;45.466;11.066;2022-11-09T17:06:11;15.20;99.90
23347;DHT22;36852;45.466;11.066;2022-11-09T17:08:59;15.10;99.90
23347;DHT22;36852;45.466;11.066;2022-11-09T17:11:46;15.10;99.90
23347;DHT22;36852;45.466;11.066;2022-11-09T17:14:32;15.00;99.90
23347;DHT22;36852;45.466;11.066;2022-11-09T17:17:20;14.90;99.90
23347;DHT22;36852;45.466;11.066;2022-11-09T17:20:08;14.80;99.90
23347;DHT22;36852;45.466;11.066;2022-11-09T17:22:54;14.70;99.90
23347;DHT22;36852;45.466;11.066;2022-11-09T17:25:41;14.70;99.90
23347;DHT22;36852;45.466;11.066;2022-11-09T17:28:31;14.70;99.90
23347;DHT22;36852;45.466;11.066;2022-11-09T17:31:20;14.70;99.90
23347;DHT22;36852;45.466;11.066;2022-11-09T17:34:07;14.70;99.90
23347;DHT22;36852;45.466;11.066;2022-11-09T17:36:53;14.70;99.90
23347;DHT22;36852;45.466;11.066;2022-11-09T17:39:41;14.70;99.90
23347;DHT22;36852;45.466;11.066;2022-11-09T17:42:28;14.70;99.90
23347;DHT22;36852;45.466;11.066;2022-11-09T17:45:14;14.60;99.90
23347;DHT22;36852;45.466;11.066;2022-11-09T17:48:00;14.60;99.90
23347;DHT22;36852;45.466;11.066;2022-11-09T17:50:46;14.60;99.90
23347;DHT22;36852;45.466;11.066;2022-11-09T17:53:33;14.70;99.90
23347;DHT22;36852;45.466;11.066;2022-11-09T17:56:20;14.70;99.90
23347;DHT22;36852;45.466;11.066;2022-11-09T17:59:05;14.70;99.90
23347;DHT22;36852;45.466;11.066;2022-11-09T18:01:53;14.70;99.90
23347;DHT22;36852;45.466;11.066;2022-11-09T18:04:41;14.70;99.90
23347;DHT22;36852;45.466;11.066;2022-11-09T18:07:28;14.70;99.90
23347;DHT22;36852;45.466;11.066;2022-11-09T18:10:15;14.70;99.90
23347;DHT22;36852;45.466;11.066;2022-11-09T18:13:01;14.70;99.90
23347;DHT22;36852;45.466;11.066;2022-11-09T18:15:48;14.70;99.90
23347;DHT22;36852;45.466;11.066;2022-11-09T18:18:34;14.70;99.90